createdAt,value
2017-12-10T00:00:13.495Z,73.90
2017-12-10T00:02:39.911Z,73.60
2017-12-10T00:05:07.124Z,74.50
2017-12-10T00:07:34.322Z,73.40
2017-12-10T00:10:00.763Z,73.50
2017-12-10T00:12:27.263Z,73.50
2017-12-10T00:14:54.463Z,73.00
2017-12-10T00:17:21.023Z,73.00
2017-12-10T00:19:47.538Z,72.80
2017-12-10T00:22:14.032Z,72.50
2017-12-10T00:24:42.396Z,72.50
2017-12-10T00:27:09.751Z,72.40
2017-12-10T00:29:36.196Z,72.30
2017-12-10T00:32:03.454Z,72.90
2017-12-10T00:34:30.807Z,72.80
2017-12-10T00:36:58.068Z,72.90
2017-12-10T00:39:24.533Z,72.40
2017-12-10T00:41:51.740Z,72.30
2017-12-10T00:44:18.236Z,72.20
2017-12-10T00:46:46.271Z,72.30
2017-12-10T00:49:13.635Z,72.30
2017-12-10T00:51:40.108Z,71.70
2017-12-10T00:54:07.316Z,71.40
2017-12-10T00:56:34.591Z,71.40
2017-12-10T00:59:01.847Z,71.40
2017-12-10T01:01:28.311Z,71.50
2017-12-10T01:03:55.495Z,72.00
2017-12-10T01:06:22.692Z,71.60
2017-12-10T01:08:50.130Z,71.60
2017-12-10T01:11:16.570Z,71.50
2017-12-10T01:13:43.754Z,71.50
2017-12-10T01:16:10.231Z,71.60
2017-12-10T01:18:37.436Z,71.60
2017-12-10T01:21:04.504Z,71.60
2017-12-10T01:23:31.760Z,71.50
2017-12-10T01:25:59.419Z,71.50
2017-12-10T01:28:27.503Z,71.70
2017-12-10T01:30:54.863Z,71.20
2017-12-10T01:33:22.020Z,71.10
2017-12-10T01:35:49.275Z,70.10
2017-12-10T01:38:15.654Z,70.70
2017-12-10T01:40:42.762Z,70.70
2017-12-10T01:43:09.511Z,70.70
2017-12-10T01:45:35.876Z,71.00
2017-12-10T01:48:03.927Z,71.20
2017-12-10T01:50:30.303Z,71.20
2017-12-10T01:52:57.615Z,71.60
2017-12-10T01:55:23.998Z,70.60
2017-12-10T01:57:51.103Z,70.60
2017-12-10T02:00:18.372Z,71.40
2017-12-10T02:02:44.727Z,70.70
2017-12-10T02:05:11.084Z,70.60
2017-12-10T02:07:38.214Z,70.80
2017-12-10T02:10:04.579Z,70.70
2017-12-10T02:12:31.063Z,70.50
2017-12-10T02:14:57.695Z,70.10
2017-12-10T02:17:24.044Z,70.50
2017-12-10T02:19:51.108Z,70.70
2017-12-10T02:22:17.471Z,70.60
2017-12-10T02:24:44.573Z,70.30
2017-12-10T02:27:11.966Z,70.30
2017-12-10T02:29:39.316Z,70.40
2017-12-10T02:32:06.580Z,70.00
2017-12-10T02:34:32.935Z,70.80
2017-12-10T02:36:59.279Z,69.70
2017-12-10T02:39:27.132Z,70.40
2017-12-10T02:41:53.500Z,70.40
2017-12-10T02:44:20.607Z,70.00
2017-12-10T02:46:47.352Z,70.00
2017-12-10T02:49:14.406Z,70.00
2017-12-10T02:51:41.863Z,70.00
2017-12-10T02:54:08.231Z,70.10
2017-12-10T02:56:34.612Z,70.10
2017-12-10T02:59:01.906Z,70.20
2017-12-10T03:01:28.268Z,70.00
2017-12-10T03:03:54.628Z,69.50
2017-12-10T03:06:21.270Z,69.40
2017-12-10T03:08:48.683Z,69.50
2017-12-10T03:11:15.041Z,69.90
2017-12-10T03:13:41.396Z,70.00
2017-12-10T03:16:09.433Z,69.90
2017-12-10T03:18:35.809Z,69.80
2017-12-10T03:21:03.539Z,70.30
2017-12-10T03:23:31.413Z,70.30
2017-12-10T03:25:58.565Z,69.90
2017-12-10T03:28:26.532Z,69.90
2017-12-10T03:30:53.715Z,70.10
2017-12-10T03:33:21.669Z,70.10
2017-12-10T03:35:48.047Z,70.00
2017-12-10T03:38:14.413Z,69.80
2017-12-10T03:40:41.048Z,69.80
2017-12-10T03:43:07.417Z,70.00
2017-12-10T03:45:33.883Z,70.30
2017-12-10T03:48:02.038Z,70.00
2017-12-10T03:50:28.390Z,70.00
2017-12-10T03:52:54.767Z,70.00
2017-12-10T03:55:21.206Z,70.10
2017-12-10T03:57:47.573Z,70.10
2017-12-10T04:00:15.147Z,70.10
2017-12-10T04:02:41.515Z,70.40
2017-12-10T04:05:08.631Z,70.10
2017-12-10T04:07:35.019Z,70.00
2017-12-10T04:10:03.063Z,70.40
2017-12-10T04:12:29.432Z,70.30
2017-12-10T04:14:57.876Z,70.10
2017-12-10T04:17:24.263Z,70.10
2017-12-10T04:19:51.471Z,70.40
2017-12-10T04:22:18.735Z,70.60
2017-12-10T04:24:46.503Z,70.70
2017-12-10T04:27:13.655Z,70.50
2017-12-10T04:29:40.043Z,70.60
2017-12-10T04:32:07.351Z,70.60
2017-12-10T04:34:33.719Z,70.40
2017-12-10T04:37:00.827Z,70.30
2017-12-10T04:39:27.227Z,70.20
2017-12-10T04:41:53.588Z,70.10
2017-12-10T04:44:20.052Z,70.10
2017-12-10T04:46:46.449Z,70.30
2017-12-10T04:49:13.439Z,70.00
2017-12-10T04:51:39.807Z,70.00
2017-12-10T04:54:06.915Z,70.40
2017-12-10T04:56:33.676Z,70.30
2017-12-10T04:59:00.840Z,70.10
2017-12-10T05:01:27.212Z,70.10
2017-12-10T05:03:54.315Z,70.10
2017-12-10T05:06:21.375Z,70.10
2017-12-10T05:08:47.737Z,69.90
2017-12-10T05:11:15.564Z,70.30
2017-12-10T05:13:41.935Z,69.90
2017-12-10T05:16:09.015Z,69.90
2017-12-10T05:18:36.123Z,69.90
2017-12-10T05:21:03.199Z,69.90
2017-12-10T05:23:29.559Z,70.00
2017-12-10T05:25:57.291Z,70.70
2017-12-10T05:28:24.348Z,69.90
2017-12-10T05:30:51.395Z,69.70
2017-12-10T05:33:18.660Z,69.80
2017-12-10T05:35:45.047Z,70.00
2017-12-10T05:38:11.420Z,70.10
2017-12-10T05:40:38.155Z,70.30
2017-12-10T05:43:04.510Z,70.10
2017-12-10T05:45:30.967Z,70.00
2017-12-10T05:47:58.100Z,69.90
2017-12-10T05:50:24.462Z,69.70
2017-12-10T05:52:50.827Z,69.70
2017-12-10T05:55:17.439Z,69.60
2017-12-10T05:57:43.812Z,69.50
2017-12-10T06:00:11.935Z,69.90
2017-12-10T06:02:39.092Z,69.50
2017-12-10T06:05:05.473Z,69.50
2017-12-10T06:07:32.788Z,69.40
2017-12-10T06:09:59.942Z,69.30
2017-12-10T06:12:26.302Z,69.60
2017-12-10T06:14:54.227Z,70.70
2017-12-10T06:17:21.812Z,69.90
2017-12-10T06:19:49.075Z,69.80
2017-12-10T06:22:15.452Z,69.90
2017-12-10T06:24:42.563Z,70.00
2017-12-10T06:27:09.820Z,69.80
2017-12-10T06:29:36.182Z,69.90
2017-12-10T06:32:04.139Z,70.10
2017-12-10T06:34:30.493Z,70.10
2017-12-10T06:36:57.594Z,70.00
2017-12-10T06:39:23.983Z,70.00
2017-12-10T06:41:51.099Z,70.10
2017-12-10T06:44:17.559Z,70.00
2017-12-10T06:46:43.962Z,70.10
2017-12-10T06:49:11.359Z,69.60
2017-12-10T06:51:37.735Z,69.80
2017-12-10T06:54:04.947Z,69.70
2017-12-10T06:56:31.316Z,69.80
2017-12-10T06:58:59.192Z,72.10
2017-12-10T07:01:26.277Z,74.00
2017-12-10T07:03:52.655Z,73.90
2017-12-10T07:06:19.929Z,70.90
2017-12-10T07:08:47.136Z,69.70
2017-12-10T07:11:14.211Z,69.70
2017-12-10T07:13:41.184Z,69.10
2017-12-10T07:16:08.328Z,69.00
2017-12-10T07:18:34.707Z,69.20
2017-12-10T07:21:01.091Z,69.10
2017-12-10T07:23:28.347Z,69.20
2017-12-10T07:25:55.495Z,69.40
2017-12-10T07:28:21.867Z,68.90
2017-12-10T07:30:51.147Z,68.50
2017-12-10T07:33:18.221Z,68.40
2017-12-10T07:35:46.171Z,68.20
2017-12-10T07:38:12.549Z,68.10
2017-12-10T07:40:39.690Z,67.40
2017-12-10T07:43:07.091Z,66.90
2017-12-10T07:45:34.178Z,66.90
2017-12-10T07:48:01.414Z,68.30
2017-12-10T07:50:28.699Z,68.80
2017-12-10T07:52:55.067Z,67.80
2017-12-10T07:55:22.193Z,66.60
2017-12-10T07:57:48.929Z,66.70
2017-12-10T08:00:16.089Z,66.40
2017-12-10T08:02:42.462Z,65.80
2017-12-10T08:05:10.297Z,66.40
2017-12-10T08:07:38.379Z,65.70
2017-12-10T08:10:05.325Z,65.70
2017-12-10T08:12:32.475Z,65.40
2017-12-10T08:14:59.613Z,65.60
2017-12-10T08:17:25.985Z,65.30
2017-12-10T08:19:52.340Z,65.10
2017-12-10T08:22:20.195Z,65.00
2017-12-10T08:24:46.564Z,65.00
2017-12-10T08:27:12.931Z,63.40
2017-12-10T08:29:40.012Z,65.30
2017-12-10T08:32:07.977Z,64.50
2017-12-10T08:34:36.057Z,65.50
2017-12-10T08:37:03.105Z,64.60
2017-12-10T08:39:29.508Z,64.20
2017-12-10T08:41:55.885Z,63.60
2017-12-10T08:44:23.137Z,63.20
2017-12-10T08:46:51.723Z,63.00
2017-12-10T08:49:18.913Z,63.90
2017-12-10T08:51:46.770Z,63.20
2017-12-10T08:54:13.124Z,63.10
2017-12-10T08:56:40.972Z,62.70
2017-12-10T08:59:08.282Z,62.50
2017-12-10T09:01:35.795Z,62.50
2017-12-10T09:04:02.174Z,62.40
2017-12-10T09:06:28.564Z,62.20
2017-12-10T09:08:54.968Z,62.40
2017-12-10T09:11:22.384Z,62.60
2017-12-10T09:13:48.753Z,62.50
2017-12-10T09:16:15.954Z,61.20
2017-12-10T09:18:43.021Z,60.40
2017-12-10T09:21:10.161Z,60.20
2017-12-10T09:23:36.532Z,60.50
2017-12-10T09:26:04.703Z,59.60
2017-12-10T09:28:31.804Z,61.60
2017-12-10T09:30:59.096Z,61.50
2017-12-10T09:33:26.236Z,59.50
2017-12-10T09:35:52.612Z,60.30
2017-12-10T09:38:19.718Z,58.60
2017-12-10T09:40:46.477Z,58.50
2017-12-10T09:43:12.964Z,59.10
2017-12-10T09:45:39.430Z,60.30
2017-12-10T09:48:06.612Z,59.00
2017-12-10T09:50:32.979Z,59.30
2017-12-10T09:53:00.075Z,57.50
2017-12-10T09:55:26.523Z,57.40
2017-12-10T09:57:53.595Z,58.80
2017-12-10T10:00:20.756Z,58.80
2017-12-10T10:02:47.908Z,59.00
2017-12-10T10:05:14.300Z,57.90
2017-12-10T10:07:41.414Z,58.30
2017-12-10T10:10:08.761Z,58.40
2017-12-10T10:12:35.116Z,58.20
2017-12-10T10:15:01.489Z,56.10
2017-12-10T10:17:28.794Z,55.70
2017-12-10T10:19:55.168Z,55.90
2017-12-10T10:22:22.292Z,54.10
2017-12-10T10:24:48.721Z,54.10
2017-12-10T10:27:15.084Z,52.70
2017-12-10T10:29:42.327Z,53.70
2017-12-10T10:33:53.849Z,54.90
2017-12-10T10:36:20.209Z,53.30
2017-12-10T10:39:22.197Z,52.80
2017-12-10T10:41:48.569Z,51.20
2017-12-10T10:44:15.028Z,51.50
2017-12-10T10:46:42.269Z,52.80
2017-12-10T10:50:08.468Z,51.80
2017-12-10T10:52:35.833Z,50.80
2017-12-10T10:55:02.241Z,52.20
2017-12-10T10:57:29.649Z,49.90
2017-12-10T10:59:57.396Z,49.80
2017-12-10T11:02:23.773Z,49.00
2017-12-10T11:04:52.254Z,52.10
2017-12-10T11:07:20.092Z,51.70
2017-12-10T11:09:47.246Z,51.70
2017-12-10T11:12:14.477Z,50.80
2017-12-10T11:14:41.569Z,51.10
2017-12-10T11:17:07.942Z,50.30
2017-12-10T11:19:35.044Z,50.30
2017-12-10T11:22:02.305Z,49.30
2017-12-10T11:24:28.669Z,49.80
2017-12-10T11:26:55.766Z,49.10
2017-12-10T11:29:22.190Z,49.20
2017-12-10T11:31:49.493Z,48.20
2017-12-10T11:34:15.867Z,49.10
2017-12-10T11:36:42.982Z,49.30
2017-12-10T11:39:09.728Z,49.20
2017-12-10T11:41:36.146Z,48.30
2017-12-10T11:44:02.627Z,47.90
2017-12-10T11:46:29.117Z,46.70
2017-12-10T11:48:56.398Z,47.60
2017-12-10T11:51:22.771Z,49.30
2017-12-10T11:53:49.172Z,47.30
2017-12-10T11:56:16.333Z,47.20
2017-12-10T11:58:43.539Z,46.70
2017-12-10T12:01:10.749Z,47.80
2017-12-10T12:03:38.819Z,47.70
2017-12-10T12:06:05.240Z,47.50
2017-12-10T12:08:31.621Z,45.80
2017-12-10T12:10:58.039Z,45.40
2017-12-10T12:13:25.193Z,47.10
2017-12-10T12:15:51.570Z,46.20
2017-12-10T12:18:18.759Z,49.20
2017-12-10T12:20:46.043Z,48.90
2017-12-10T12:23:13.219Z,47.60
2017-12-10T12:25:39.676Z,49.50
2017-12-10T12:28:06.780Z,47.30
2017-12-10T12:30:33.691Z,47.20
2017-12-10T12:33:01.012Z,48.40
2017-12-10T12:35:28.079Z,48.10
2017-12-10T12:37:54.569Z,51.30
2017-12-10T12:40:21.893Z,48.90
2017-12-10T12:42:48.980Z,48.90
2017-12-10T12:45:15.366Z,48.80
2017-12-10T12:47:42.703Z,47.40
2017-12-10T12:50:09.069Z,49.00
2017-12-10T12:52:36.910Z,45.90
2017-12-10T12:55:03.326Z,45.90
2017-12-10T12:57:30.507Z,47.30
2017-12-10T12:59:57.749Z,47.80
2017-12-10T13:02:24.915Z,47.00
2017-12-10T13:04:51.391Z,45.10
2017-12-10T13:07:18.517Z,46.30
2017-12-10T13:09:45.702Z,46.30
2017-12-10T13:12:12.861Z,47.50
2017-12-10T13:14:39.980Z,47.50
2017-12-10T13:17:06.756Z,47.40
2017-12-10T13:19:34.799Z,50.20
2017-12-10T13:22:01.948Z,50.00
2017-12-10T13:24:28.313Z,50.30
2017-12-10T13:26:55.468Z,47.90
2017-12-10T13:29:22.187Z,47.70
2017-12-10T13:31:49.339Z,48.30
2017-12-10T13:34:15.742Z,48.60
2017-12-10T13:36:42.789Z,49.50
2017-12-10T13:39:09.996Z,48.10
2017-12-10T13:41:36.949Z,47.40
2017-12-10T13:44:04.583Z,47.30
2017-12-10T13:46:30.955Z,48.80
2017-12-10T13:48:58.915Z,47.90
2017-12-10T13:51:26.280Z,48.00
2017-12-10T13:53:53.436Z,48.30
2017-12-10T13:56:20.693Z,47.80
2017-12-10T13:58:47.952Z,48.60
2017-12-10T14:01:14.539Z,47.50
2017-12-10T14:03:40.925Z,46.70
2017-12-10T14:06:07.372Z,48.20
2017-12-10T14:08:34.532Z,48.10
2017-12-10T14:11:00.913Z,48.00
2017-12-10T14:13:27.274Z,48.80
2017-12-10T14:15:53.668Z,49.80
2017-12-10T14:18:21.404Z,50.00
2017-12-10T14:20:48.660Z,49.80
2017-12-10T14:23:15.812Z,48.80
2017-12-10T14:25:42.181Z,49.70
2017-12-10T14:28:10.771Z,49.60
2017-12-10T14:30:39.732Z,49.80
2017-12-10T14:33:06.892Z,49.70
2017-12-10T14:35:33.260Z,50.40
2017-12-10T14:38:01.514Z,48.50
2017-12-10T14:40:28.764Z,48.40
2017-12-10T14:42:55.124Z,49.10
2017-12-10T14:45:21.492Z,49.00
2017-12-10T14:47:48.493Z,47.80
2017-12-10T14:50:14.892Z,49.00
2017-12-10T14:52:41.267Z,48.90
2017-12-10T14:55:07.709Z,49.10
2017-12-10T14:57:34.764Z,49.70
2017-12-10T15:00:01.913Z,49.10
2017-12-10T15:02:28.289Z,49.10
2017-12-10T15:04:56.326Z,49.60
2017-12-10T15:07:22.715Z,49.50
2017-12-10T15:09:49.088Z,50.10
2017-12-10T15:12:15.848Z,49.90
2017-12-10T15:14:42.236Z,50.20
2017-12-10T15:17:09.537Z,51.50
2017-12-10T15:19:35.949Z,50.00
2017-12-10T15:22:04.135Z,50.80
2017-12-10T15:24:31.108Z,50.70
2017-12-10T15:26:57.593Z,51.80
2017-12-10T15:29:25.520Z,50.30
2017-12-10T15:31:53.161Z,50.20
2017-12-10T15:34:20.249Z,51.20
2017-12-10T15:36:46.857Z,50.30
2017-12-10T15:39:14.244Z,50.80
2017-12-10T15:41:40.617Z,49.70
2017-12-10T15:44:08.553Z,51.80
2017-12-10T15:46:35.708Z,51.80
2017-12-10T15:49:02.861Z,52.00
2017-12-10T15:51:29.220Z,52.00
2017-12-10T15:53:56.356Z,51.90
2017-12-10T15:56:23.412Z,52.80
2017-12-10T15:58:50.561Z,53.00
2017-12-10T16:01:16.916Z,53.00
2017-12-10T16:03:44.057Z,54.00
2017-12-10T16:06:11.213Z,54.30
2017-12-10T16:08:38.679Z,54.10
2017-12-10T16:11:05.053Z,54.50
2017-12-10T16:13:33.188Z,55.00
2017-12-10T16:16:01.058Z,55.20
2017-12-10T16:18:27.422Z,54.80
2017-12-10T16:20:53.800Z,54.10
2017-12-10T16:23:20.889Z,56.30
2017-12-10T16:25:47.268Z,54.90
2017-12-10T16:28:14.356Z,55.30
2017-12-10T16:30:41.836Z,55.30
2017-12-10T16:33:09.205Z,57.00
2017-12-10T16:35:36.459Z,55.90
2017-12-10T16:38:02.813Z,54.70
2017-12-10T16:40:29.952Z,55.10
2017-12-10T16:42:57.009Z,56.80
2017-12-10T16:45:23.484Z,56.80
2017-12-10T16:47:51.412Z,57.80
2017-12-10T16:50:18.570Z,57.80
2017-12-10T16:52:45.733Z,58.40
2017-12-10T16:55:12.124Z,58.10
2017-12-10T16:57:38.478Z,57.40
2017-12-10T17:00:05.654Z,59.10
2017-12-10T17:02:32.021Z,57.40
2017-12-10T17:05:00.087Z,59.30
2017-12-10T17:07:27.323Z,58.50
2017-12-10T17:09:53.697Z,60.10
2017-12-10T17:12:21.809Z,61.40
2017-12-10T17:14:48.771Z,61.40
2017-12-10T17:17:15.953Z,61.00
2017-12-10T17:19:43.057Z,59.70
2017-12-10T17:22:09.499Z,59.90
2017-12-10T17:24:36.852Z,58.40
2017-12-10T17:27:03.221Z,59.10
2017-12-10T17:29:29.581Z,58.60
2017-12-10T17:31:58.185Z,58.60
2017-12-10T17:34:24.533Z,58.60
2017-12-10T17:36:51.649Z,58.00
2017-12-10T17:39:18.805Z,58.00
2017-12-10T17:41:45.867Z,58.70
2017-12-10T17:44:12.993Z,59.40
2017-12-10T17:46:39.356Z,60.60
2017-12-10T17:49:06.417Z,61.50
2017-12-10T17:51:33.414Z,61.20
2017-12-10T17:53:59.797Z,60.60
2017-12-10T17:56:26.174Z,59.80
2017-12-10T17:58:54.019Z,58.20
2017-12-10T18:01:20.397Z,58.20
2017-12-10T18:03:47.930Z,59.10
2017-12-10T18:06:15.295Z,58.70
2017-12-10T18:08:43.389Z,58.90
2017-12-10T18:11:09.789Z,58.90
2017-12-10T18:13:37.058Z,58.60
2017-12-10T18:16:03.427Z,58.90
2017-12-10T18:18:29.811Z,59.20
2017-12-10T18:20:57.113Z,59.40
2017-12-10T18:23:23.473Z,59.10
2017-12-10T18:25:50.400Z,59.20
2017-12-10T18:28:17.607Z,58.60
2017-12-10T18:30:43.999Z,59.20
2017-12-10T18:33:11.313Z,60.10
2017-12-10T18:35:39.884Z,59.80
2017-12-10T18:38:07.250Z,59.80
2017-12-10T18:40:34.399Z,59.50
2017-12-10T18:43:00.804Z,59.10
2017-12-10T18:45:27.996Z,57.50
2017-12-10T18:47:55.662Z,57.30
2017-12-10T18:50:22.925Z,58.50
2017-12-10T18:52:50.285Z,57.70
2017-12-10T18:55:17.439Z,58.40
2017-12-10T18:57:44.899Z,58.10
2017-12-10T19:00:12.155Z,58.00
2017-12-10T19:02:38.589Z,58.40
2017-12-10T19:05:05.023Z,58.70
2017-12-10T19:07:31.533Z,57.90
2017-12-10T19:09:58.019Z,57.60
2017-12-10T19:12:25.572Z,58.40
2017-12-10T19:14:51.971Z,58.50
2017-12-10T19:17:19.294Z,58.70
2017-12-10T19:19:50.117Z,58.80
2017-12-10T19:22:16.483Z,58.60
2017-12-10T19:24:44.429Z,59.10
2017-12-10T19:27:11.668Z,59.10
2017-12-10T19:29:38.037Z,59.40
2017-12-10T19:32:05.285Z,59.70
2017-12-10T19:34:32.737Z,59.40
2017-12-10T19:36:59.859Z,59.60
2017-12-10T19:39:27.869Z,59.50
2017-12-10T19:41:55.126Z,59.70
2017-12-10T19:44:22.277Z,59.30
2017-12-10T19:46:49.839Z,60.50
2017-12-10T19:49:17.404Z,60.60
2017-12-10T19:51:43.996Z,60.90
2017-12-10T19:54:13.465Z,60.20
2017-12-10T19:56:40.853Z,60.00
2017-12-10T19:59:09.406Z,60.20
2017-12-10T20:01:36.004Z,60.20
2017-12-10T20:04:03.541Z,60.00
2017-12-10T20:06:30.860Z,60.30
2017-12-10T20:08:57.291Z,60.30
2017-12-10T20:11:24.156Z,61.30
2017-12-10T20:13:51.532Z,61.80
2017-12-10T20:16:18.021Z,61.10
2017-12-10T20:18:44.363Z,62.00
2017-12-10T20:21:11.955Z,64.30
2017-12-10T20:23:38.370Z,63.10
2017-12-10T20:26:05.653Z,64.20
2017-12-10T20:28:32.369Z,64.90
2017-12-10T20:30:59.457Z,65.10
2017-12-10T20:33:26.702Z,65.40
2017-12-10T20:35:54.075Z,65.50
2017-12-10T20:38:21.226Z,65.50
2017-12-10T20:40:49.195Z,66.50
2017-12-10T20:43:16.381Z,65.20
2017-12-10T20:45:43.616Z,64.70
2017-12-10T20:48:10.869Z,64.50
2017-12-10T20:50:38.020Z,63.80
2017-12-10T20:53:05.211Z,64.30
2017-12-10T20:55:32.318Z,64.90
2017-12-10T20:57:59.507Z,64.90
2017-12-10T21:00:26.956Z,64.20
2017-12-10T21:02:54.077Z,64.40
2017-12-10T21:05:20.519Z,64.50
2017-12-10T21:07:46.894Z,65.00
2017-12-10T21:10:15.564Z,65.40
2017-12-10T21:12:41.941Z,65.40
2017-12-10T21:15:09.052Z,66.70
2017-12-10T21:17:36.623Z,66.70
2017-12-10T21:20:03.783Z,66.20
2017-12-10T21:22:30.936Z,66.40
2017-12-10T21:24:57.308Z,67.80
2017-12-10T21:27:24.393Z,68.30
2017-12-10T21:29:51.481Z,68.30
2017-12-10T21:32:18.742Z,67.40
2017-12-10T21:34:45.699Z,65.60
2017-12-10T21:37:12.061Z,65.20
2017-12-10T21:39:40.301Z,64.30
2017-12-10T21:42:06.673Z,64.30
2017-12-10T21:44:35.219Z,65.00
2017-12-10T21:47:02.381Z,64.20
2017-12-10T21:49:29.436Z,63.90
2017-12-10T21:51:55.808Z,63.60
2017-12-10T21:54:23.849Z,63.80
2017-12-10T21:56:50.236Z,63.70
2017-12-10T21:59:17.644Z,63.70
2017-12-10T22:01:44.009Z,63.50
2017-12-10T22:04:10.393Z,63.50
2017-12-10T22:06:37.753Z,63.40
2017-12-10T22:09:04.113Z,63.60
2017-12-10T22:11:31.425Z,63.50
2017-12-10T22:13:59.444Z,63.30
2017-12-10T22:16:25.804Z,63.20
2017-12-10T22:18:52.995Z,64.00
2017-12-10T22:21:20.500Z,64.70
2017-12-10T22:23:46.865Z,64.20
2017-12-10T22:26:14.100Z,63.90
2017-12-10T22:28:41.356Z,65.00
2017-12-10T22:31:07.708Z,63.80
2017-12-10T22:33:35.768Z,63.70
2017-12-10T22:36:02.124Z,63.70
2017-12-10T22:38:29.468Z,63.40
2017-12-10T22:40:55.907Z,63.30
2017-12-10T22:43:22.217Z,63.50
2017-12-10T22:45:49.507Z,63.70
2017-12-10T22:48:16.761Z,63.50
2017-12-10T22:50:44.012Z,63.50
2017-12-10T22:53:10.345Z,63.70
2017-12-10T22:55:36.685Z,64.20
2017-12-10T22:58:04.348Z,64.30
2017-12-10T23:00:31.512Z,64.40
2017-12-10T23:02:57.845Z,63.80
2017-12-10T23:05:25.001Z,63.60
2017-12-10T23:07:52.204Z,63.50
2017-12-10T23:10:19.265Z,63.20
2017-12-10T23:12:45.588Z,63.50
2017-12-10T23:15:15.564Z,63.60
2017-12-10T23:17:42.814Z,63.60
2017-12-10T23:20:11.041Z,63.40
2017-12-10T23:22:39.072Z,63.80
2017-12-10T23:25:05.387Z,63.80
2017-12-10T23:27:32.601Z,63.90
2017-12-10T23:29:59.692Z,63.90
2017-12-10T23:32:26.993Z,63.80
2017-12-10T23:34:55.972Z,63.80
2017-12-10T23:37:22.308Z,63.80
2017-12-10T23:39:48.641Z,64.00
2017-12-10T23:42:15.284Z,63.90
2017-12-10T23:44:41.644Z,64.00
2017-12-10T23:47:10.620Z,64.30
2017-12-10T23:49:37.772Z,64.30
2017-12-10T23:52:05.037Z,64.10
2017-12-10T23:54:33.315Z,64.10
2017-12-10T23:57:00.316Z,64.30
2017-12-10T23:59:28.140Z,64.20
